CheckWX is a tool to help pilots better visualize weather data.  It is not intended as a substitute for an official pre-flight weather briefing.

00:46:26 UTC

KLSE METAR
La Crosse Regional Airport
La Crosse, Wisconsin, USA
Current

53 mins ago

KLSE 182353Z 16012G20KT 10SM CLR 16/05 A2971 RMK AO2 PK WND 15026/2311 SLP061 60000 T01610050 10200 20161 55007
Observed
Oct-18 @ 23:53 UTC
Wind
  • 160° at 12 KTS
  • Gusting to 20 KTS
Visibility
10 SM
Flight Rules
VFR
Cloud Levels
  • Clear skies
Temperature
16°C / 61°F
Dewpoint
C / 41°F
Humidity
48%
Altimeter
29.71" Hg
Pressure
1006.12 hPa
Previous

2 hours ago

KLSE 182253Z 16017G26KT 10SM CLR 17/06 A2971 RMK AO2 PK WND 15030/2241 SLP059 T01720056
Observed
Oct-18 @ 22:53 UTC
Wind
  • 160° at 17 KTS
  • Gusting to 26 KTS
Visibility
10 SM
Flight Rules
VFR
Cloud Levels
  • Clear skies
Temperature
17°C / 63°F
Dewpoint
C / 43°F
Humidity
49%
Altimeter
29.71" Hg
Pressure
1006.12 hPa
Previous

3 hours ago

KLSE 182153Z 16021G29KT 10SM CLR 19/06 A2972 RMK AO2 PK WND 15031/2129 RAB2056E14 SLP062 P0000 T01890056
Observed
Oct-18 @ 21:53 UTC
Wind
  • 160° at 21 KTS
  • Gusting to 29 KTS
Visibility
10 SM
Flight Rules
VFR
Cloud Levels
  • Clear skies
Temperature
19°C / 66°F
Dewpoint
C / 43°F
Humidity
43%
Altimeter
29.72" Hg
Pressure
1006.42 hPa
Current Rain
0.01"